sensor_id;sensor_type;location;lat;lon;timestamp;P1;durP1;ratioP1;P2;durP2;ratioP2
14118;SDS011;7138;49.246;9.100;2023-05-07T00:00:16;4.72;;;2.28;;
14118;SDS011;7138;49.246;9.100;2023-05-07T00:02:43;5.07;;;2.25;;
14118;SDS011;7138;49.246;9.100;2023-05-07T00:05:11;5.38;;;2.10;;
14118;SDS011;7138;49.246;9.100;2023-05-07T00:07:37;4.57;;;2.10;;
14118;SDS011;7138;49.246;9.100;2023-05-07T00:10:03;4.30;;;1.98;;
14118;SDS011;7138;49.246;9.100;2023-05-07T00:12:31;5.05;;;1.75;;
14118;SDS011;7138;49.246;9.100;2023-05-07T00:14:58;6.15;;;2.35;;
14118;SDS011;7138;49.246;9.100;2023-05-07T00:17:24;4.65;;;2.10;;
14118;SDS011;7138;49.246;9.100;2023-05-07T00:19:50;5.22;;;2.25;;
14118;SDS011;7138;49.246;9.100;2023-05-07T00:22:17;4.95;;;2.10;;
14118;SDS011;7138;49.246;9.100;2023-05-07T00:24:43;3.63;;;1.92;;
14118;SDS011;7138;49.246;9.100;2023-05-07T00:27:09;6.18;;;2.70;;
14118;SDS011;7138;49.246;9.100;2023-05-07T00:29:34;4.18;;;2.22;;
14118;SDS011;7138;49.246;9.100;2023-05-07T00:32:01;6.65;;;2.30;;
14118;SDS011;7138;49.246;9.100;2023-05-07T00:34:27;6.97;;;2.63;;
14118;SDS011;7138;49.246;9.100;2023-05-07T00:36:53;5.20;;;2.47;;
14118;SDS011;7138;49.246;9.100;2023-05-07T00:39:20;5.93;;;2.30;;
14118;SDS011;7138;49.246;9.100;2023-05-07T00:41:46;5.97;;;2.50;;
14118;SDS011;7138;49.246;9.100;2023-05-07T00:44:12;5.90;;;2.65;;
14118;SDS011;7138;49.246;9.100;2023-05-07T00:46:38;4.18;;;2.55;;
14118;SDS011;7138;49.246;9.100;2023-05-07T00:49:04;6.40;;;2.60;;
14118;SDS011;7138;49.246;9.100;2023-05-07T00:51:30;6.43;;;2.50;;
14118;SDS011;7138;49.246;9.100;2023-05-07T00:53:59;4.65;;;2.63;;
14118;SDS011;7138;49.246;9.100;2023-05-07T00:56:28;7.60;;;2.60;;
14118;SDS011;7138;49.246;9.100;2023-05-07T00:58:54;5.00;;;2.13;;
14118;SDS011;7138;49.246;9.100;2023-05-07T01:01:20;5.88;;;2.60;;
14118;SDS011;7138;49.246;9.100;2023-05-07T01:03:46;3.42;;;2.00;;
14118;SDS011;7138;49.246;9.100;2023-05-07T01:06:12;5.05;;;2.30;;
14118;SDS011;7138;49.246;9.100;2023-05-07T01:08:41;6.47;;;2.53;;
14118;SDS011;7138;49.246;9.100;2023-05-07T01:11:08;4.30;;;2.10;;
14118;SDS011;7138;49.246;9.100;2023-05-07T01:13:37;4.20;;;2.03;;
14118;SDS011;7138;49.246;9.100;2023-05-07T01:16:05;3.83;;;2.55;;
14118;SDS011;7138;49.246;9.100;2023-05-07T01:18:31;4.78;;;2.42;;
14118;SDS011;7138;49.246;9.100;2023-05-07T01:20:58;4.38;;;2.45;;
14118;SDS011;7138;49.246;9.100;2023-05-07T01:23:28;4.43;;;2.00;;
14118;SDS011;7138;49.246;9.100;2023-05-07T01:25:55;4.70;;;2.42;;
14118;SDS011;7138;49.246;9.100;2023-05-07T01:28:21;6.65;;;2.20;;
14118;SDS011;7138;49.246;9.100;2023-05-07T01:30:48;5.10;;;2.00;;
14118;SDS011;7138;49.246;9.100;2023-05-07T01:33:20;5.20;;;2.38;;
14118;SDS011;7138;49.246;9.100;2023-05-07T01:35:48;8.63;;;2.53;;
14118;SDS011;7138;49.246;9.100;2023-05-07T01:38:18;4.68;;;2.05;;
14118;SDS011;7138;49.246;9.100;2023-05-07T01:40:48;3.72;;;2.13;;
14118;SDS011;7138;49.246;9.100;2023-05-07T01:43:15;5.32;;;2.25;;
14118;SDS011;7138;49.246;9.100;2023-05-07T01:45:41;4.13;;;2.05;;
14118;SDS011;7138;49.246;9.100;2023-05-07T01:48:07;5.25;;;2.25;;
14118;SDS011;7138;49.246;9.100;2023-05-07T01:50:36;5.43;;;2.40;;
14118;SDS011;7138;49.246;9.100;2023-05-07T01:53:03;4.05;;;2.40;;
14118;SDS011;7138;49.246;9.100;2023-05-07T01:55:29;4.03;;;2.38;;
14118;SDS011;7138;49.246;9.100;2023-05-07T01:57:56;4.40;;;2.45;;
14118;SDS011;7138;49.246;9.100;2023-05-07T02:00:22;5.03;;;2.38;;
14118;SDS011;7138;49.246;9.100;2023-05-07T02:02:48;4.57;;;2.25;;
14118;SDS011;7138;49.246;9.100;2023-05-07T02:05:14;6.60;;;2.58;;
14118;SDS011;7138;49.246;9.100;2023-05-07T02:07:40;10.32;;;2.60;;
14118;SDS011;7138;49.246;9.100;2023-05-07T02:10:06;5.43;;;2.30;;
14118;SDS011;7138;49.246;9.100;2023-05-07T02:12:33;4.50;;;2.33;;
14118;SDS011;7138;49.246;9.100;2023-05-07T02:15:00;5.18;;;2.20;;
14118;SDS011;7138;49.246;9.100;2023-05-07T02:17:26;5.15;;;2.20;;
14118;SDS011;7138;49.246;9.100;2023-05-07T02:19:52;5.68;;;2.30;;
14118;SDS011;7138;49.246;9.100;2023-05-07T02:22:18;4.85;;;1.98;;
14118;SDS011;7138;49.246;9.100;2023-05-07T02:24:43;4.22;;;2.40;;
14118;SDS011;7138;49.246;9.100;2023-05-07T02:27:09;5.57;;;2.40;;
14118;SDS011;7138;49.246;9.100;2023-05-07T02:29:35;6.90;;;2.35;;
14118;SDS011;7138;49.246;9.100;2023-05-07T02:32:02;4.05;;;1.95;;
14118;SDS011;7138;49.246;9.100;2023-05-07T02:34:28;4.28;;;2.20;;
14118;SDS011;7138;49.246;9.100;2023-05-07T02:36:54;3.80;;;2.17;;
14118;SDS011;7138;49.246;9.100;2023-05-07T02:39:20;5.20;;;2.70;;
14118;SDS011;7138;49.246;9.100;2023-05-07T02:41:46;3.50;;;2.20;;
14118;SDS011;7138;49.246;9.100;2023-05-07T02:44:12;5.22;;;2.20;;
14118;SDS011;7138;49.246;9.100;2023-05-07T02:46:38;4.95;;;2.00;;
14118;SDS011;7138;49.246;9.100;2023-05-07T02:49:05;3.78;;;1.98;;
14118;SDS011;7138;49.246;9.100;2023-05-07T02:51:31;3.65;;;2.03;;
14118;SDS011;7138;49.246;9.100;2023-05-07T02:53:57;4.50;;;2.15;;
14118;SDS011;7138;49.246;9.100;2023-05-07T02:56:22;5.25;;;2.30;;
14118;SDS011;7138;49.246;9.100;2023-05-07T02:58:50;3.42;;;2.35;;
14118;SDS011;7138;49.246;9.100;2023-05-07T03:01:16;3.10;;;1.65;;
14118;SDS011;7138;49.246;9.100;2023-05-07T03:03:42;6.22;;;2.00;;
14118;SDS011;7138;49.246;9.100;2023-05-07T03:06:09;4.05;;;2.00;;
14118;SDS011;7138;49.246;9.100;2023-05-07T03:08:35;4.60;;;2.40;;
14118;SDS011;7138;49.246;9.100;2023-05-07T03:11:01;6.22;;;2.40;;
14118;SDS011;7138;49.246;9.100;2023-05-07T03:13:27;3.20;;;1.95;;
14118;SDS011;7138;49.246;9.100;2023-05-07T03:15:53;7.03;;;2.00;;
14118;SDS011;7138;49.246;9.100;2023-05-07T03:18:19;6.70;;;2.85;;
14118;SDS011;7138;49.246;9.100;2023-05-07T03:20:45;4.88;;;2.35;;
14118;SDS011;7138;49.246;9.100;2023-05-07T03:23:12;6.63;;;2.85;;
14118;SDS011;7138;49.246;9.100;2023-05-07T03:25:38;4.43;;;2.58;;
14118;SDS011;7138;49.246;9.100;2023-05-07T03:28:04;4.40;;;2.42;;
14118;SDS011;7138;49.246;9.100;2023-05-07T03:30:30;7.03;;;2.90;;
14118;SDS011;7138;49.246;9.100;2023-05-07T03:32:56;4.22;;;2.33;;
14118;SDS011;7138;49.246;9.100;2023-05-07T03:35:22;4.57;;;2.53;;
14118;SDS011;7138;49.246;9.100;2023-05-07T03:37:48;5.07;;;2.50;;
14118;SDS011;7138;49.246;9.100;2023-05-07T03:40:15;4.25;;;2.80;;
14118;SDS011;7138;49.246;9.100;2023-05-07T03:42:41;4.93;;;2.50;;
14118;SDS011;7138;49.246;9.100;2023-05-07T03:45:07;7.15;;;2.35;;
14118;SDS011;7138;49.246;9.100;2023-05-07T03:47:34;4.82;;;2.63;;
14118;SDS011;7138;49.246;9.100;2023-05-07T03:49:59;4.63;;;2.53;;
14118;SDS011;7138;49.246;9.100;2023-05-07T03:52:25;6.35;;;2.70;;
14118;SDS011;7138;49.246;9.100;2023-05-07T03:54:52;5.32;;;2.78;;
14118;SDS011;7138;49.246;9.100;2023-05-07T03:57:20;4.40;;;2.45;;
14118;SDS011;7138;49.246;9.100;2023-05-07T03:59:46;5.30;;;3.03;;
14118;SDS011;7138;49.246;9.100;2023-05-07T04:02:11;5.18;;;2.53;;
14118;SDS011;7138;49.246;9.100;2023-05-07T04:04:37;5.30;;;2.70;;
14118;SDS011;7138;49.246;9.100;2023-05-07T04:07:03;5.53;;;2.50;;
14118;SDS011;7138;49.246;9.100;2023-05-07T04:09:29;6.28;;;2.80;;
14118;SDS011;7138;49.246;9.100;2023-05-07T04:11:55;3.75;;;2.45;;
14118;SDS011;7138;49.246;9.100;2023-05-07T04:14:22;4.60;;;2.50;;
14118;SDS011;7138;49.246;9.100;2023-05-07T04:16:48;5.55;;;2.60;;
14118;SDS011;7138;49.246;9.100;2023-05-07T04:19:14;6.32;;;2.55;;
14118;SDS011;7138;49.246;9.100;2023-05-07T04:21:40;4.38;;;2.50;;
14118;SDS011;7138;49.246;9.100;2023-05-07T04:24:06;4.95;;;2.50;;
14118;SDS011;7138;49.246;9.100;2023-05-07T04:26:32;4.80;;;2.53;;
14118;SDS011;7138;49.246;9.100;2023-05-07T04:28:58;5.50;;;2.25;;
14118;SDS011;7138;49.246;9.100;2023-05-07T04:31:26;5.95;;;2.38;;
14118;SDS011;7138;49.246;9.100;2023-05-07T04:33:52;4.63;;;2.30;;
14118;SDS011;7138;49.246;9.100;2023-05-07T04:36:17;4.60;;;2.15;;
14118;SDS011;7138;49.246;9.100;2023-05-07T04:38:43;5.80;;;2.30;;
14118;SDS011;7138;49.246;9.100;2023-05-07T04:41:09;3.78;;;2.20;;
14118;SDS011;7138;49.246;9.100;2023-05-07T04:43:38;3.97;;;2.20;;
14118;SDS011;7138;49.246;9.100;2023-05-07T04:46:03;4.78;;;2.30;;
14118;SDS011;7138;49.246;9.100;2023-05-07T04:48:31;5.03;;;2.10;;
14118;SDS011;7138;49.246;9.100;2023-05-07T04:50:57;5.00;;;2.30;;
14118;SDS011;7138;49.246;9.100;2023-05-07T04:53:22;3.97;;;2.35;;
14118;SDS011;7138;49.246;9.100;2023-05-07T04:55:48;4.43;;;2.30;;
14118;SDS011;7138;49.246;9.100;2023-05-07T04:58:20;4.68;;;2.40;;
14118;SDS011;7138;49.246;9.100;2023-05-07T05:00:46;7.32;;;2.78;;
14118;SDS011;7138;49.246;9.100;2023-05-07T05:03:12;4.72;;;2.53;;
14118;SDS011;7138;49.246;9.100;2023-05-07T05:05:39;5.82;;;2.33;;
14118;SDS011;7138;49.246;9.100;2023-05-07T05:08:05;4.40;;;2.55;;
14118;SDS011;7138;49.246;9.100;2023-05-07T05:10:30;5.22;;;2.92;;
14118;SDS011;7138;49.246;9.100;2023-05-07T05:12:56;4.78;;;2.38;;
14118;SDS011;7138;49.246;9.100;2023-05-07T05:15:22;5.93;;;2.30;;
14118;SDS011;7138;49.246;9.100;2023-05-07T05:17:48;4.00;;;2.45;;
14118;SDS011;7138;49.246;9.100;2023-05-07T05:20:14;3.83;;;2.58;;
14118;SDS011;7138;49.246;9.100;2023-05-07T05:22:41;4.97;;;2.10;;
14118;SDS011;7138;49.246;9.100;2023-05-07T05:25:07;3.88;;;2.33;;
14118;SDS011;7138;49.246;9.100;2023-05-07T05:27:34;5.03;;;2.35;;
14118;SDS011;7138;49.246;9.100;2023-05-07T05:30:00;5.80;;;3.00;;
14118;SDS011;7138;49.246;9.100;2023-05-07T05:32:26;5.40;;;2.67;;
14118;SDS011;7138;49.246;9.100;2023-05-07T05:34:52;6.03;;;3.05;;
14118;SDS011;7138;49.246;9.100;2023-05-07T05:37:18;5.28;;;2.97;;
14118;SDS011;7138;49.246;9.100;2023-05-07T05:39:45;5.38;;;2.97;;
14118;SDS011;7138;49.246;9.100;2023-05-07T05:42:10;5.13;;;2.70;;
14118;SDS011;7138;49.246;9.100;2023-05-07T05:44:36;4.75;;;3.22;;
14118;SDS011;7138;49.246;9.100;2023-05-07T05:47:02;5.70;;;2.60;;
14118;SDS011;7138;49.246;9.100;2023-05-07T05:49:28;4.60;;;2.80;;
14118;SDS011;7138;49.246;9.100;2023-05-07T05:51:54;4.22;;;2.42;;
14118;SDS011;7138;49.246;9.100;2023-05-07T05:54:21;4.35;;;2.65;;
14118;SDS011;7138;49.246;9.100;2023-05-07T05:56:48;4.57;;;2.58;;
14118;SDS011;7138;49.246;9.100;2023-05-07T05:59:14;6.82;;;2.78;;
14118;SDS011;7138;49.246;9.100;2023-05-07T06:01:40;6.35;;;2.80;;
14118;SDS011;7138;49.246;9.100;2023-05-07T06:04:06;4.47;;;2.13;;
14118;SDS011;7138;49.246;9.100;2023-05-07T06:06:31;4.90;;;2.60;;
14118;SDS011;7138;49.246;9.100;2023-05-07T06:08:57;5.28;;;2.53;;
14118;SDS011;7138;49.246;9.100;2023-05-07T06:11:23;5.85;;;2.55;;
14118;SDS011;7138;49.246;9.100;2023-05-07T06:13:51;6.85;;;3.08;;
14118;SDS011;7138;49.246;9.100;2023-05-07T06:16:17;6.20;;;2.83;;
14118;SDS011;7138;49.246;9.100;2023-05-07T06:18:43;5.22;;;2.78;;
14118;SDS011;7138;49.246;9.100;2023-05-07T06:21:10;4.50;;;2.90;;
14118;SDS011;7138;49.246;9.100;2023-05-07T06:23:36;5.38;;;2.78;;
14118;SDS011;7138;49.246;9.100;2023-05-07T06:26:02;6.53;;;2.78;;
14118;SDS011;7138;49.246;9.100;2023-05-07T06:28:28;4.25;;;2.40;;
14118;SDS011;7138;49.246;9.100;2023-05-07T06:31:06;5.65;;;3.13;;
14118;SDS011;7138;49.246;9.100;2023-05-07T06:33:37;4.93;;;2.70;;
14118;SDS011;7138;49.246;9.100;2023-05-07T06:36:03;6.00;;;2.80;;
14118;SDS011;7138;49.246;9.100;2023-05-07T06:38:30;4.72;;;2.50;;
14118;SDS011;7138;49.246;9.100;2023-05-07T06:40:56;4.25;;;2.90;;
14118;SDS011;7138;49.246;9.100;2023-05-07T06:43:22;6.38;;;2.78;;
14118;SDS011;7138;49.246;9.100;2023-05-07T06:45:48;5.18;;;2.80;;
14118;SDS011;7138;49.246;9.100;2023-05-07T06:48:15;7.32;;;2.85;;
14118;SDS011;7138;49.246;9.100;2023-05-07T06:50:41;5.88;;;2.88;;
14118;SDS011;7138;49.246;9.100;2023-05-07T06:53:07;4.32;;;2.60;;
14118;SDS011;7138;49.246;9.100;2023-05-07T06:55:33;4.40;;;2.55;;
14118;SDS011;7138;49.246;9.100;2023-05-07T06:57:59;5.82;;;2.40;;
14118;SDS011;7138;49.246;9.100;2023-05-07T07:00:26;4.00;;;2.72;;
14118;SDS011;7138;49.246;9.100;2023-05-07T07:02:52;5.60;;;2.58;;
14118;SDS011;7138;49.246;9.100;2023-05-07T07:05:20;4.25;;;2.70;;
14118;SDS011;7138;49.246;9.100;2023-05-07T07:07:46;6.13;;;2.90;;
14118;SDS011;7138;49.246;9.100;2023-05-07T07:10:17;6.28;;;2.85;;
14118;SDS011;7138;49.246;9.100;2023-05-07T07:12:44;6.30;;;2.92;;
14118;SDS011;7138;49.246;9.100;2023-05-07T07:15:10;5.63;;;2.50;;
14118;SDS011;7138;49.246;9.100;2023-05-07T07:17:36;8.50;;;2.60;;
14118;SDS011;7138;49.246;9.100;2023-05-07T07:20:02;6.47;;;2.50;;
14118;SDS011;7138;49.246;9.100;2023-05-07T07:22:30;4.93;;;2.50;;
14118;SDS011;7138;49.246;9.100;2023-05-07T07:24:56;5.03;;;2.47;;
14118;SDS011;7138;49.246;9.100;2023-05-07T07:27:22;4.97;;;2.47;;
14118;SDS011;7138;49.246;9.100;2023-05-07T07:29:48;4.80;;;2.28;;
14118;SDS011;7138;49.246;9.100;2023-05-07T07:32:14;3.92;;;2.40;;
14118;SDS011;7138;49.246;9.100;2023-05-07T07:34:39;4.45;;;2.30;;
14118;SDS011;7138;49.246;9.100;2023-05-07T07:37:05;4.50;;;2.15;;
14118;SDS011;7138;49.246;9.100;2023-05-07T07:39:32;3.50;;;2.10;;
14118;SDS011;7138;49.246;9.100;2023-05-07T07:41:59;3.80;;;2.15;;
14118;SDS011;7138;49.246;9.100;2023-05-07T07:44:25;5.57;;;2.38;;
14118;SDS011;7138;49.246;9.100;2023-05-07T07:46:51;6.03;;;2.17;;
14118;SDS011;7138;49.246;9.100;2023-05-07T07:49:17;6.38;;;2.40;;
14118;SDS011;7138;49.246;9.100;2023-05-07T07:51:43;3.60;;;2.13;;
14118;SDS011;7138;49.246;9.100;2023-05-07T07:54:08;4.50;;;2.30;;
14118;SDS011;7138;49.246;9.100;2023-05-07T07:56:36;3.53;;;2.00;;
14118;SDS011;7138;49.246;9.100;2023-05-07T07:59:01;4.38;;;2.40;;
14118;SDS011;7138;49.246;9.100;2023-05-07T08:01:28;4.40;;;1.92;;
14118;SDS011;7138;49.246;9.100;2023-05-07T08:03:55;6.15;;;2.65;;
14118;SDS011;7138;49.246;9.100;2023-05-07T08:06:23;4.85;;;2.33;;
14118;SDS011;7138;49.246;9.100;2023-05-07T08:08:50;3.92;;;2.22;;
14118;SDS011;7138;49.246;9.100;2023-05-07T08:11:16;5.80;;;2.05;;
14118;SDS011;7138;49.246;9.100;2023-05-07T08:13:43;4.68;;;2.33;;
14118;SDS011;7138;49.246;9.100;2023-05-07T08:16:11;6.95;;;2.65;;
14118;SDS011;7138;49.246;9.100;2023-05-07T08:18:37;5.00;;;2.65;;
14118;SDS011;7138;49.246;9.100;2023-05-07T08:21:03;6.88;;;2.38;;
14118;SDS011;7138;49.246;9.100;2023-05-07T08:23:29;5.10;;;2.30;;
14118;SDS011;7138;49.246;9.100;2023-05-07T08:25:55;3.67;;;1.90;;
14118;SDS011;7138;49.246;9.100;2023-05-07T08:28:21;5.68;;;2.17;;
14118;SDS011;7138;49.246;9.100;2023-05-07T08:30:48;4.45;;;1.90;;
14118;SDS011;7138;49.246;9.100;2023-05-07T08:33:14;5.05;;;2.28;;
14118;SDS011;7138;49.246;9.100;2023-05-07T08:35:40;4.90;;;2.17;;
14118;SDS011;7138;49.246;9.100;2023-05-07T08:38:05;3.30;;;1.80;;
14118;SDS011;7138;49.246;9.100;2023-05-07T08:40:33;3.45;;;2.10;;
14118;SDS011;7138;49.246;9.100;2023-05-07T08:43:03;5.50;;;2.10;;
14118;SDS011;7138;49.246;9.100;2023-05-07T08:45:31;4.45;;;1.88;;
14118;SDS011;7138;49.246;9.100;2023-05-07T08:48:01;3.50;;;1.70;;
14118;SDS011;7138;49.246;9.100;2023-05-07T08:50:34;5.10;;;2.28;;
14118;SDS011;7138;49.246;9.100;2023-05-07T08:53:02;4.38;;;2.22;;
14118;SDS011;7138;49.246;9.100;2023-05-07T08:55:28;4.40;;;2.05;;
14118;SDS011;7138;49.246;9.100;2023-05-07T08:57:55;9.88;;;1.95;;
14118;SDS011;7138;49.246;9.100;2023-05-07T09:00:21;4.00;;;2.00;;
14118;SDS011;7138;49.246;9.100;2023-05-07T09:02:47;4.18;;;2.25;;
14118;SDS011;7138;49.246;9.100;2023-05-07T09:05:14;3.20;;;1.80;;
14118;SDS011;7138;49.246;9.100;2023-05-07T09:07:40;3.92;;;1.75;;
14118;SDS011;7138;49.246;9.100;2023-05-07T09:10:07;4.22;;;2.05;;
14118;SDS011;7138;49.246;9.100;2023-05-07T09:12:33;3.85;;;2.03;;
14118;SDS011;7138;49.246;9.100;2023-05-07T09:15:04;4.63;;;1.95;;
14118;SDS011;7138;49.246;9.100;2023-05-07T09:17:32;3.35;;;2.08;;
14118;SDS011;7138;49.246;9.100;2023-05-07T09:20:01;5.35;;;2.20;;
14118;SDS011;7138;49.246;9.100;2023-05-07T09:22:32;5.78;;;2.30;;
14118;SDS011;7138;49.246;9.100;2023-05-07T09:24:59;6.60;;;2.20;;
14118;SDS011;7138;49.246;9.100;2023-05-07T09:27:25;3.45;;;1.85;;
14118;SDS011;7138;49.246;9.100;2023-05-07T09:29:51;4.80;;;1.98;;
14118;SDS011;7138;49.246;9.100;2023-05-07T09:32:17;5.78;;;2.10;;
14118;SDS011;7138;49.246;9.100;2023-05-07T09:34:43;3.45;;;1.80;;
14118;SDS011;7138;49.246;9.100;2023-05-07T09:37:09;3.70;;;2.08;;
14118;SDS011;7138;49.246;9.100;2023-05-07T09:39:40;6.25;;;1.70;;
14118;SDS011;7138;49.246;9.100;2023-05-07T09:42:07;3.58;;;1.67;;
14118;SDS011;7138;49.246;9.100;2023-05-07T09:44:33;6.57;;;2.42;;
14118;SDS011;7138;49.246;9.100;2023-05-07T09:47:00;4.50;;;1.83;;
14118;SDS011;7138;49.246;9.100;2023-05-07T09:49:30;2.92;;;1.40;;
14118;SDS011;7138;49.246;9.100;2023-05-07T09:51:59;5.03;;;1.88;;
14118;SDS011;7138;49.246;9.100;2023-05-07T09:54:26;3.38;;;1.85;;
14118;SDS011;7138;49.246;9.100;2023-05-07T09:56:57;4.00;;;1.92;;
14118;SDS011;7138;49.246;9.100;2023-05-07T09:59:24;3.65;;;1.63;;
14118;SDS011;7138;49.246;9.100;2023-05-07T10:01:52;3.97;;;2.22;;
14118;SDS011;7138;49.246;9.100;2023-05-07T10:04:23;4.32;;;1.67;;
14118;SDS011;7138;49.246;9.100;2023-05-07T10:06:49;3.83;;;1.75;;
14118;SDS011;7138;49.246;9.100;2023-05-07T10:09:16;3.80;;;1.50;;
14118;SDS011;7138;49.246;9.100;2023-05-07T10:11:43;3.95;;;2.00;;
14118;SDS011;7138;49.246;9.100;2023-05-07T10:14:11;4.93;;;1.70;;
14118;SDS011;7138;49.246;9.100;2023-05-07T10:16:39;6.47;;;1.92;;
14118;SDS011;7138;49.246;9.100;2023-05-07T10:19:06;4.25;;;1.83;;
14118;SDS011;7138;49.246;9.100;2023-05-07T10:21:37;4.47;;;1.77;;
14118;SDS011;7138;49.246;9.100;2023-05-07T10:24:10;4.20;;;2.10;;
14118;SDS011;7138;49.246;9.100;2023-05-07T10:26:45;3.22;;;1.73;;
14118;SDS011;7138;49.246;9.100;2023-05-07T10:29:18;4.45;;;1.73;;
14118;SDS011;7138;49.246;9.100;2023-05-07T10:31:58;4.93;;;1.90;;
14118;SDS011;7138;49.246;9.100;2023-05-07T10:34:45;4.30;;;1.63;;
14118;SDS011;7138;49.246;9.100;2023-05-07T10:37:16;4.13;;;1.90;;
14118;SDS011;7138;49.246;9.100;2023-05-07T10:39:42;2.83;;;1.50;;
14118;SDS011;7138;49.246;9.100;2023-05-07T10:42:09;3.75;;;1.90;;
14118;SDS011;7138;49.246;9.100;2023-05-07T10:44:37;4.18;;;1.30;;
14118;SDS011;7138;49.246;9.100;2023-05-07T10:47:04;4.03;;;1.75;;
14118;SDS011;7138;49.246;9.100;2023-05-07T10:49:35;3.50;;;1.10;;
14118;SDS011;7138;49.246;9.100;2023-05-07T10:52:11;3.42;;;1.48;;
14118;SDS011;7138;49.246;9.100;2023-05-07T10:54:41;3.28;;;1.38;;
14118;SDS011;7138;49.246;9.100;2023-05-07T11:00:03;3.63;;;1.50;;
14118;SDS011;7138;49.246;9.100;2023-05-07T11:03:06;3.60;;;1.38;;
14118;SDS011;7138;49.246;9.100;2023-05-07T11:05:32;2.88;;;1.65;;
14118;SDS011;7138;49.246;9.100;2023-05-07T11:08:00;4.32;;;1.58;;
14118;SDS011;7138;49.246;9.100;2023-05-07T11:13:15;4.60;;;1.40;;
14118;SDS011;7138;49.246;9.100;2023-05-07T11:15:44;5.13;;;1.80;;
14118;SDS011;7138;49.246;9.100;2023-05-07T11:18:13;3.35;;;1.50;;
14118;SDS011;7138;49.246;9.100;2023-05-07T11:20:47;3.33;;;1.40;;
14118;SDS011;7138;49.246;9.100;2023-05-07T11:26:23;4.00;;;1.50;;
14118;SDS011;7138;49.246;9.100;2023-05-07T11:28:51;3.22;;;1.60;;
14118;SDS011;7138;49.246;9.100;2023-05-07T11:31:22;3.60;;;1.70;;
14118;SDS011;7138;49.246;9.100;2023-05-07T11:33:51;3.63;;;1.60;;
14118;SDS011;7138;49.246;9.100;2023-05-07T11:36:18;2.88;;;1.60;;
14118;SDS011;7138;49.246;9.100;2023-05-07T11:38:46;3.40;;;1.40;;
14118;SDS011;7138;49.246;9.100;2023-05-07T11:41:12;3.28;;;1.45;;
14118;SDS011;7138;49.246;9.100;2023-05-07T11:43:38;2.63;;;1.20;;
14118;SDS011;7138;49.246;9.100;2023-05-07T11:46:19;3.05;;;1.40;;
14118;SDS011;7138;49.246;9.100;2023-05-07T11:48:47;3.72;;;1.40;;
14118;SDS011;7138;49.246;9.100;2023-05-07T11:51:13;5.47;;;1.30;;
14118;SDS011;7138;49.246;9.100;2023-05-07T11:53:45;2.70;;;1.40;;
14118;SDS011;7138;49.246;9.100;2023-05-07T11:56:11;3.78;;;1.27;;
14118;SDS011;7138;49.246;9.100;2023-05-07T11:58:39;4.25;;;1.30;;
14118;SDS011;7138;49.246;9.100;2023-05-07T12:01:07;2.40;;;1.10;;
14118;SDS011;7138;49.246;9.100;2023-05-07T12:03:35;3.17;;;1.40;;
14118;SDS011;7138;49.246;9.100;2023-05-07T12:06:07;3.78;;;1.30;;
14118;SDS011;7138;49.246;9.100;2023-05-07T12:08:36;3.17;;;1.13;;
14118;SDS011;7138;49.246;9.100;2023-05-07T12:11:03;2.90;;;1.20;;
14118;SDS011;7138;49.246;9.100;2023-05-07T12:13:34;4.25;;;1.30;;
14118;SDS011;7138;49.246;9.100;2023-05-07T12:15:59;2.70;;;1.23;;
14118;SDS011;7138;49.246;9.100;2023-05-07T12:18:28;3.65;;;1.40;;
14118;SDS011;7138;49.246;9.100;2023-05-07T12:20:56;3.83;;;1.40;;
14118;SDS011;7138;49.246;9.100;2023-05-07T12:23:24;2.80;;;1.20;;
14118;SDS011;7138;49.246;9.100;2023-05-07T12:25:50;3.17;;;1.20;;
14118;SDS011;7138;49.246;9.100;2023-05-07T12:28:17;2.75;;;1.20;;
14118;SDS011;7138;49.246;9.100;2023-05-07T12:30:44;2.75;;;1.10;;
14118;SDS011;7138;49.246;9.100;2023-05-07T12:33:15;3.88;;;1.00;;
14118;SDS011;7138;49.246;9.100;2023-05-07T12:35:42;4.23;;;1.10;;
14118;SDS011;7138;49.246;9.100;2023-05-07T12:38:11;2.55;;;0.90;;
14118;SDS011;7138;49.246;9.100;2023-05-07T12:43:05;3.33;;;1.02;;
14118;SDS011;7138;49.246;9.100;2023-05-07T12:45:31;2.67;;;1.10;;
14118;SDS011;7138;49.246;9.100;2023-05-07T12:48:03;3.45;;;1.20;;
14118;SDS011;7138;49.246;9.100;2023-05-07T12:50:33;2.75;;;1.00;;
14118;SDS011;7138;49.246;9.100;2023-05-07T12:52:59;3.33;;;1.10;;
14118;SDS011;7138;49.246;9.100;2023-05-07T12:55:32;4.20;;;1.00;;
14118;SDS011;7138;49.246;9.100;2023-05-07T12:58:05;3.65;;;1.20;;
14118;SDS011;7138;49.246;9.100;2023-05-07T13:00:35;3.40;;;1.10;;
14118;SDS011;7138;49.246;9.100;2023-05-07T13:03:02;3.38;;;1.08;;
14118;SDS011;7138;49.246;9.100;2023-05-07T13:05:30;3.40;;;0.98;;
14118;SDS011;7138;49.246;9.100;2023-05-07T13:07:57;3.35;;;1.17;;
14118;SDS011;7138;49.246;9.100;2023-05-07T13:10:24;2.38;;;1.08;;
14118;SDS011;7138;49.246;9.100;2023-05-07T13:12:51;4.88;;;1.15;;
14118;SDS011;7138;49.246;9.100;2023-05-07T13:15:17;2.63;;;0.90;;
14118;SDS011;7138;49.246;9.100;2023-05-07T13:17:44;3.35;;;1.13;;
14118;SDS011;7138;49.246;9.100;2023-05-07T13:20:10;4.80;;;1.33;;
14118;SDS011;7138;49.246;9.100;2023-05-07T13:22:40;2.65;;;1.10;;
14118;SDS011;7138;49.246;9.100;2023-05-07T13:25:07;4.50;;;1.10;;
14118;SDS011;7138;49.246;9.100;2023-05-07T13:27:33;4.15;;;1.20;;
14118;SDS011;7138;49.246;9.100;2023-05-07T13:30:04;3.50;;;1.10;;
14118;SDS011;7138;49.246;9.100;2023-05-07T13:32:32;2.53;;;1.17;;
14118;SDS011;7138;49.246;9.100;2023-05-07T13:34:58;3.30;;;1.20;;
14118;SDS011;7138;49.246;9.100;2023-05-07T13:37:24;4.90;;;1.40;;
14118;SDS011;7138;49.246;9.100;2023-05-07T13:39:50;3.92;;;1.30;;
14118;SDS011;7138;49.246;9.100;2023-05-07T13:42:16;3.55;;;1.00;;
14118;SDS011;7138;49.246;9.100;2023-05-07T13:44:42;2.65;;;1.17;;
14118;SDS011;7138;49.246;9.100;2023-05-07T13:47:10;3.72;;;1.40;;
14118;SDS011;7138;49.246;9.100;2023-05-07T13:49:36;3.40;;;1.45;;
14118;SDS011;7138;49.246;9.100;2023-05-07T13:52:01;2.95;;;1.23;;
14118;SDS011;7138;49.246;9.100;2023-05-07T13:54:28;3.42;;;1.27;;
14118;SDS011;7138;49.246;9.100;2023-05-07T13:56:54;5.35;;;1.55;;
14118;SDS011;7138;49.246;9.100;2023-05-07T13:59:20;6.32;;;1.40;;
14118;SDS011;7138;49.246;9.100;2023-05-07T14:01:45;2.67;;;1.13;;
14118;SDS011;7138;49.246;9.100;2023-05-07T14:04:13;3.33;;;1.25;;
14118;SDS011;7138;49.246;9.100;2023-05-07T14:06:39;3.70;;;1.08;;
14118;SDS011;7138;49.246;9.100;2023-05-07T14:09:05;4.50;;;1.38;;
14118;SDS011;7138;49.246;9.100;2023-05-07T14:11:31;5.18;;;1.30;;
14118;SDS011;7138;49.246;9.100;2023-05-07T14:13:56;3.10;;;1.50;;
14118;SDS011;7138;49.246;9.100;2023-05-07T14:16:23;8.18;;;1.40;;
14118;SDS011;7138;49.246;9.100;2023-05-07T14:18:49;2.75;;;1.23;;
14118;SDS011;7138;49.246;9.100;2023-05-07T14:21:16;3.90;;;1.35;;
14118;SDS011;7138;49.246;9.100;2023-05-07T14:23:42;4.40;;;1.40;;
14118;SDS011;7138;49.246;9.100;2023-05-07T14:26:08;3.55;;;1.48;;
14118;SDS011;7138;49.246;9.100;2023-05-07T14:28:33;3.72;;;1.63;;
14118;SDS011;7138;49.246;9.100;2023-05-07T14:30:59;4.25;;;1.42;;
14118;SDS011;7138;49.246;9.100;2023-05-07T14:33:25;3.40;;;1.25;;
14118;SDS011;7138;49.246;9.100;2023-05-07T14:35:54;3.85;;;1.20;;
14118;SDS011;7138;49.246;9.100;2023-05-07T14:38:21;7.43;;;1.27;;
14118;SDS011;7138;49.246;9.100;2023-05-07T14:40:47;6.43;;;2.05;;
14118;SDS011;7138;49.246;9.100;2023-05-07T14:43:13;3.63;;;1.75;;
14118;SDS011;7138;49.246;9.100;2023-05-07T14:45:39;3.40;;;1.90;;
14118;SDS011;7138;49.246;9.100;2023-05-07T14:48:05;5.43;;;1.60;;
14118;SDS011;7138;49.246;9.100;2023-05-07T14:50:31;4.93;;;1.50;;
14118;SDS011;7138;49.246;9.100;2023-05-07T14:52:57;3.53;;;1.77;;
14118;SDS011;7138;49.246;9.100;2023-05-07T14:55:25;3.80;;;1.70;;
14118;SDS011;7138;49.246;9.100;2023-05-07T14:57:50;5.65;;;2.08;;
14118;SDS011;7138;49.246;9.100;2023-05-07T15:00:16;5.80;;;2.05;;
14118;SDS011;7138;49.246;9.100;2023-05-07T15:02:43;5.63;;;1.77;;
14118;SDS011;7138;49.246;9.100;2023-05-07T15:05:08;4.35;;;2.00;;
14118;SDS011;7138;49.246;9.100;2023-05-07T15:07:34;7.90;;;2.15;;
14118;SDS011;7138;49.246;9.100;2023-05-07T15:10:00;8.65;;;2.38;;